sensor_id;sensor_type;location;lat;lon;timestamp;pressure;altitude;pressure_sealevel;temperature;humidity
63582;BME280;49727;51.078;17.066;2023-05-07T00:08:16;100557.78;;;8.28;76.03
63582;BME280;49727;51.078;17.066;2023-05-07T00:23:16;100564.78;;;8.29;76.62
63582;BME280;49727;51.078;17.066;2023-05-07T00:38:17;100572.06;;;8.27;76.06
63582;BME280;49727;51.078;17.066;2023-05-07T00:53:17;100582.69;;;8.27;76.58
63582;BME280;49727;51.078;17.066;2023-05-07T01:08:18;100585.47;;;8.25;76.49
63582;BME280;49727;51.078;17.066;2023-05-07T01:23:18;100588.00;;;8.27;76.14
63582;BME280;49727;51.078;17.066;2023-05-07T01:38:21;100590.25;;;8.22;75.92
63582;BME280;49727;51.078;17.066;2023-05-07T01:53:22;100593.44;;;8.25;76.35
63582;BME280;49727;51.078;17.066;2023-05-07T02:08:22;100606.44;;;8.19;76.07
63582;BME280;49727;51.078;17.066;2023-05-07T02:23:23;100595.69;;;8.10;76.44
63582;BME280;49727;51.078;17.066;2023-05-07T02:38:23;100603.69;;;8.01;76.13
63582;BME280;49727;51.078;17.066;2023-05-07T02:53:24;100614.91;;;7.94;76.40
63582;BME280;49727;51.078;17.066;2023-05-07T03:08:27;100620.34;;;7.93;76.17
63582;BME280;49727;51.078;17.066;2023-05-07T03:23:29;100626.91;;;7.89;75.73
63582;BME280;49727;51.078;17.066;2023-05-07T03:38:29;100641.44;;;7.85;75.86
63582;BME280;49727;51.078;17.066;2023-05-07T03:53:30;100661.28;;;7.81;75.60
63582;BME280;49727;51.078;17.066;2023-05-07T04:08:30;100686.66;;;7.83;75.27
63582;BME280;49727;51.078;17.066;2023-05-07T04:23:30;100701.44;;;7.86;75.23
63582;BME280;49727;51.078;17.066;2023-05-07T04:38:31;100711.78;;;7.99;75.70
63582;BME280;49727;51.078;17.066;2023-05-07T04:53:31;100725.47;;;8.13;75.29
63582;BME280;49727;51.078;17.066;2023-05-07T05:08:32;100743.41;;;8.69;74.54
63582;BME280;49727;51.078;17.066;2023-05-07T05:23:32;100767.56;;;8.85;73.77
63582;BME280;49727;51.078;17.066;2023-05-07T05:38:32;100777.00;;;8.60;73.35
63582;BME280;49727;51.078;17.066;2023-05-07T05:53:33;100774.06;;;9.01;73.59
63582;BME280;49727;51.078;17.066;2023-05-07T06:08:33;100787.63;;;9.63;72.46
63582;BME280;49727;51.078;17.066;2023-05-07T06:23:33;100798.75;;;9.76;71.76
63582;BME280;49727;51.078;17.066;2023-05-07T06:38:34;100819.81;;;10.06;69.98
63582;BME280;49727;51.078;17.066;2023-05-07T06:53:35;100840.78;;;9.73;69.00
63582;BME280;49727;51.078;17.066;2023-05-07T07:08:35;100848.31;;;9.49;69.58
63582;BME280;49727;51.078;17.066;2023-05-07T07:23:35;100866.66;;;9.80;68.30
63582;BME280;49727;51.078;17.066;2023-05-07T07:38:36;100873.50;;;10.47;67.18
63582;BME280;49727;51.078;17.066;2023-05-07T07:53:36;100898.81;;;10.33;65.55
63582;BME280;49727;51.078;17.066;2023-05-07T08:08:37;100900.63;;;9.87;66.07
63582;BME280;49727;51.078;17.066;2023-05-07T08:23:37;100910.56;;;9.67;66.46
63582;BME280;49727;51.078;17.066;2023-05-07T08:38:38;100932.69;;;9.57;65.84
63582;BME280;49727;51.078;17.066;2023-05-07T08:53:41;100944.75;;;9.52;65.41
63582;BME280;49727;51.078;17.066;2023-05-07T09:08:49;100965.19;;;9.51;65.80
63582;BME280;49727;51.078;17.066;2023-05-07T09:23:53;100960.34;;;10.40;64.26
63582;BME280;49727;51.078;17.066;2023-05-07T09:38:54;100967.75;;;10.64;63.49
63582;BME280;49727;51.078;17.066;2023-05-07T09:53:57;100968.59;;;11.00;62.88
63582;BME280;49727;51.078;17.066;2023-05-07T10:09:00;100977.72;;;12.38;61.74
63582;BME280;49727;51.078;17.066;2023-05-07T10:24:05;100976.91;;;12.45;58.45
63582;BME280;49727;51.078;17.066;2023-05-07T10:39:14;100986.75;;;12.53;57.28
63582;BME280;49727;51.078;17.066;2023-05-07T11:09:15;100977.44;;;11.80;56.63
63582;BME280;49727;51.078;17.066;2023-05-07T11:24:16;100982.84;;;12.23;56.48
63582;BME280;49727;51.078;17.066;2023-05-07T11:39:30;101013.31;;;11.77;56.20
63582;BME280;49727;51.078;17.066;2023-05-07T11:54:36;101022.25;;;12.21;55.76
63582;BME280;49727;51.078;17.066;2023-05-07T12:09:37;101035.69;;;11.84;55.22
63582;BME280;49727;51.078;17.066;2023-05-07T12:24:48;101039.31;;;12.36;54.57
63582;BME280;49727;51.078;17.066;2023-05-07T12:39:59;101050.47;;;11.97;54.16
63582;BME280;49727;51.078;17.066;2023-05-07T12:55:07;101049.00;;;11.76;54.27
63582;BME280;49727;51.078;17.066;2023-05-07T13:10:08;101061.94;;;11.89;54.15
63582;BME280;49727;51.078;17.066;2023-05-07T13:25:09;101079.72;;;11.36;54.17
63582;BME280;49727;51.078;17.066;2023-05-07T13:40:09;101089.16;;;11.48;54.51
63582;BME280;49727;51.078;17.066;2023-05-07T13:55:10;101086.03;;;11.35;53.14
63582;BME280;49727;51.078;17.066;2023-05-07T14:10:10;101096.09;;;10.87;54.39
63582;BME280;49727;51.078;17.066;2023-05-07T14:25:11;101083.56;;;10.88;54.27
63582;BME280;49727;51.078;17.066;2023-05-07T14:40:12;101101.09;;;10.90;54.77
63582;BME280;49727;51.078;17.066;2023-05-07T14:55:12;101114.50;;;10.80;54.54
63582;BME280;49727;51.078;17.066;2023-05-07T15:10:12;101115.47;;;10.79;54.54
63582;BME280;49727;51.078;17.066;2023-05-07T15:25:13;101122.78;;;10.77;55.33
63582;BME280;49727;51.078;17.066;2023-05-07T15:40:13;101122.88;;;10.58;55.57
63582;BME280;49727;51.078;17.066;2023-05-07T15:55:14;101114.84;;;10.30;56.41
63582;BME280;49727;51.078;17.066;2023-05-07T16:10:14;101121.31;;;10.18;56.68
63582;BME280;49727;51.078;17.066;2023-05-07T16:25:15;101118.53;;;10.09;57.33
63582;BME280;49727;51.078;17.066;2023-05-07T16:40:16;101126.16;;;9.94;57.95
63582;BME280;49727;51.078;17.066;2023-05-07T16:55:17;101126.16;;;9.85;58.07
63582;BME280;49727;51.078;17.066;2023-05-07T17:10:17;101135.44;;;9.71;58.52
63582;BME280;49727;51.078;17.066;2023-05-07T17:25:18;101141.88;;;9.58;58.52
63582;BME280;49727;51.078;17.066;2023-05-07T17:40:20;101149.69;;;9.40;59.38
63582;BME280;49727;51.078;17.066;2023-05-07T17:55:21;101157.38;;;9.24;59.94
63582;BME280;49727;51.078;17.066;2023-05-07T18:10:22;101167.53;;;8.99;60.13
63582;BME280;49727;51.078;17.066;2023-05-07T18:25:22;101180.78;;;8.79;60.95
63582;BME280;49727;51.078;17.066;2023-05-07T18:40:23;101204.94;;;8.67;61.29
63582;BME280;49727;51.078;17.066;2023-05-07T18:55:23;101212.81;;;8.57;61.58
63582;BME280;49727;51.078;17.066;2023-05-07T19:10:24;101225.22;;;8.46;61.86
63582;BME280;49727;51.078;17.066;2023-05-07T19:25:24;101252.38;;;8.39;61.71
63582;BME280;49727;51.078;17.066;2023-05-07T19:40:24;101255.81;;;8.29;61.63
63582;BME280;49727;51.078;17.066;2023-05-07T19:55:25;101265.00;;;8.25;61.51
63582;BME280;49727;51.078;17.066;2023-05-07T20:10:25;101280.38;;;8.22;61.69
63582;BME280;49727;51.078;17.066;2023-05-07T20:25:26;101280.03;;;8.15;61.00
63582;BME280;49727;51.078;17.066;2023-05-07T20:40:26;101284.16;;;8.08;60.61
63582;BME280;49727;51.078;17.066;2023-05-07T20:55:27;101285.50;;;8.02;60.41
63582;BME280;49727;51.078;17.066;2023-05-07T21:10:27;101301.97;;;7.85;59.96
63582;BME280;49727;51.078;17.066;2023-05-07T21:25:27;101313.63;;;7.04;59.59
63582;BME280;49727;51.078;17.066;2023-05-07T21:40:28;101321.59;;;6.46;60.29
63582;BME280;49727;51.078;17.066;2023-05-07T21:55:28;101322.56;;;5.97;61.09
63582;BME280;49727;51.078;17.066;2023-05-07T22:10:29;101320.06;;;5.58;61.59
63582;BME280;49727;51.078;17.066;2023-05-07T22:25:31;101316.63;;;5.19;62.58
63582;BME280;49727;51.078;17.066;2023-05-07T22:40:33;101308.94;;;4.90;63.43
63582;BME280;49727;51.078;17.066;2023-05-07T22:55:33;101305.34;;;4.65;63.95
63582;BME280;49727;51.078;17.066;2023-05-07T23:10:34;101306.03;;;4.29;64.98
63582;BME280;49727;51.078;17.066;2023-05-07T23:25:34;101304.91;;;4.05;66.19
63582;BME280;49727;51.078;17.066;2023-05-07T23:40:35;101303.47;;;3.87;66.83
63582;BME280;49727;51.078;17.066;2023-05-07T23:55:35;101298.53;;;3.68;67.41
